Mars Hill, Maine
Current Conditions -  °F | °C
As of 11:35 AM on Tuesday 21 Oct 2014 (Local Time) from KPQI Reporting Station
Few Clouds Few Clouds  
Wind Chill: 40°   Ceiling: Unl
Heat Index: 43°   Visibility: 10mi
Dew Point: 28°   Wind: 5mph
Humidity: 57%   Direction: 50°NE
Pressure: 30.11"   Gusts: NA
Location:  46.52°N, 67.87°W
Report Text: KPQI 211535Z AUTO 05004KT 10SM FEW075 06/M02 A3011 RMK AO1
Loading
Personal Weather Stations






























Interactive Weather Map
Tropical Storm Tracking
New forecast layout! Learn more

10-Day Weather Forecast

Advertisements
Track Severe Weather on mobile